sensor_id;sensor_type;location;lat;lon;timestamp;pressure;altitude;pressure_sealevel;temperature;humidity
79174;BME280;68599;49.142;9.124;2023-04-10T00:01:05;100399.13;;;4.49;62.27
79174;BME280;68599;49.142;9.124;2023-04-10T00:03:32;100397.88;;;4.50;65.58
79174;BME280;68599;49.142;9.124;2023-04-10T00:05:59;100399.13;;;4.49;66.44
79174;BME280;68599;49.142;9.124;2023-04-10T00:08:25;100397.15;;;4.48;64.39
79174;BME280;68599;49.142;9.124;2023-04-10T00:10:52;100399.47;;;4.48;64.47
79174;BME280;68599;49.142;9.124;2023-04-10T00:13:19;100394.84;;;4.49;63.73
79174;BME280;68599;49.142;9.124;2023-04-10T00:15:46;100399.16;;;4.51;64.70
79174;BME280;68599;49.142;9.124;2023-04-10T00:18:13;100399.48;;;4.50;63.71
79174;BME280;68599;49.142;9.124;2023-04-10T00:20:40;100398.41;;;4.49;65.97
79174;BME280;68599;49.142;9.124;2023-04-10T00:23:07;100397.66;;;4.46;67.36
79174;BME280;68599;49.142;9.124;2023-04-10T00:25:34;100397.30;;;4.39;66.26
79174;BME280;68599;49.142;9.124;2023-04-10T00:28:01;100397.02;;;4.33;63.67
79174;BME280;68599;49.142;9.124;2023-04-10T00:30:27;100394.94;;;4.27;66.18
79174;BME280;68599;49.142;9.124;2023-04-10T00:32:54;100394.27;;;4.20;64.43
79174;BME280;68599;49.142;9.124;2023-04-10T00:35:20;100392.73;;;4.15;67.11
79174;BME280;68599;49.142;9.124;2023-04-10T00:37:47;100386.73;;;4.10;63.67
79174;BME280;68599;49.142;9.124;2023-04-10T00:40:15;100387.55;;;4.06;67.32
79174;BME280;68599;49.142;9.124;2023-04-10T00:42:42;100386.23;;;4.02;65.10
79174;BME280;68599;49.142;9.124;2023-04-10T00:45:09;100385.96;;;3.98;65.34
79174;BME280;68599;49.142;9.124;2023-04-10T00:47:36;100380.90;;;3.95;63.77
79174;BME280;68599;49.142;9.124;2023-04-10T00:50:04;100379.92;;;3.91;67.24
79174;BME280;68599;49.142;9.124;2023-04-10T00:52:32;100378.23;;;3.87;64.34
79174;BME280;68599;49.142;9.124;2023-04-10T00:54:58;100376.20;;;3.83;63.48
79174;BME280;68599;49.142;9.124;2023-04-10T00:57:25;100377.19;;;3.80;65.97
79174;BME280;68599;49.142;9.124;2023-04-10T00:59:52;100369.87;;;3.80;63.58
79174;BME280;68599;49.142;9.124;2023-04-10T01:02:19;100373.11;;;3.81;64.53
79174;BME280;68599;49.142;9.124;2023-04-10T01:04:46;100370.98;;;3.82;64.58
79174;BME280;68599;49.142;9.124;2023-04-10T01:09:57;100371.23;;;3.84;65.03
79174;BME280;68599;49.142;9.124;2023-04-10T01:12:43;100373.87;;;3.83;65.10
79174;BME280;68599;49.142;9.124;2023-04-10T01:15:15;100379.91;;;3.82;64.56
79174;BME280;68599;49.142;9.124;2023-04-10T01:17:51;100386.07;;;3.79;64.70
79174;BME280;68599;49.142;9.124;2023-04-10T01:20:23;100390.97;;;3.74;64.29
79174;BME280;68599;49.142;9.124;2023-04-10T01:25:52;100395.89;;;3.63;67.27
79174;BME280;68599;49.142;9.124;2023-04-10T01:30:51;100391.77;;;3.47;67.92
79174;BME280;68599;49.142;9.124;2023-04-10T01:33:20;100388.02;;;3.39;66.25
79174;BME280;68599;49.142;9.124;2023-04-10T01:35:49;100387.64;;;3.30;65.46
79174;BME280;68599;49.142;9.124;2023-04-10T01:38:19;100391.55;;;3.23;68.02
79174;BME280;68599;49.142;9.124;2023-04-10T01:40:50;100390.86;;;3.17;65.46
79174;BME280;68599;49.142;9.124;2023-04-10T01:43:18;100393.86;;;3.08;65.58
79174;BME280;68599;49.142;9.124;2023-04-10T01:45:47;100395.41;;;3.00;65.83
79174;BME280;68599;49.142;9.124;2023-04-10T01:48:16;100394.31;;;2.98;65.38
79174;BME280;68599;49.142;9.124;2023-04-10T01:50:45;100393.56;;;2.97;69.01
79174;BME280;68599;49.142;9.124;2023-04-10T01:53:12;100391.34;;;2.93;71.72
79174;BME280;68599;49.142;9.124;2023-04-10T01:55:40;100392.77;;;2.94;68.35
79174;BME280;68599;49.142;9.124;2023-04-10T01:58:07;100392.13;;;2.97;67.08
79174;BME280;68599;49.142;9.124;2023-04-10T02:00:38;100390.30;;;2.95;67.33
79174;BME280;68599;49.142;9.124;2023-04-10T02:03:06;100391.43;;;2.90;66.67
79174;BME280;68599;49.142;9.124;2023-04-10T02:06:00;100393.16;;;2.88;68.79
79174;BME280;68599;49.142;9.124;2023-04-10T02:09:01;100389.92;;;2.80;72.53
79174;BME280;68599;49.142;9.124;2023-04-10T02:12:13;100387.88;;;2.70;74.15
79174;BME280;68599;49.142;9.124;2023-04-10T02:14:44;100387.98;;;2.60;71.64
79174;BME280;68599;49.142;9.124;2023-04-10T02:17:17;100384.83;;;2.56;67.60
79174;BME280;68599;49.142;9.124;2023-04-10T02:19:46;100386.09;;;2.49;70.06
79174;BME280;68599;49.142;9.124;2023-04-10T02:22:14;100381.36;;;2.45;69.72
79174;BME280;68599;49.142;9.124;2023-04-10T02:24:42;100389.27;;;2.42;72.95
79174;BME280;68599;49.142;9.124;2023-04-10T02:27:08;100395.23;;;2.39;72.25
79174;BME280;68599;49.142;9.124;2023-04-10T02:29:35;100386.23;;;2.35;67.97
79174;BME280;68599;49.142;9.124;2023-04-10T02:32:02;100389.16;;;2.31;68.91
79174;BME280;68599;49.142;9.124;2023-04-10T02:34:29;100391.73;;;2.34;70.93
79174;BME280;68599;49.142;9.124;2023-04-10T02:36:56;100393.38;;;2.37;69.86
79174;BME280;68599;49.142;9.124;2023-04-10T02:39:22;100393.12;;;2.39;68.83
79174;BME280;68599;49.142;9.124;2023-04-10T02:41:49;100388.71;;;2.41;70.20
79174;BME280;68599;49.142;9.124;2023-04-10T02:44:15;100389.38;;;2.46;69.13
79174;BME280;68599;49.142;9.124;2023-04-10T02:46:42;100393.00;;;2.48;69.73
79174;BME280;68599;49.142;9.124;2023-04-10T02:49:08;100395.18;;;2.50;72.88
79174;BME280;68599;49.142;9.124;2023-04-10T02:51:35;100394.61;;;2.55;75.89
79174;BME280;68599;49.142;9.124;2023-04-10T02:54:02;100395.09;;;2.53;74.21
79174;BME280;68599;49.142;9.124;2023-04-10T02:56:29;100395.11;;;2.47;74.29
79174;BME280;68599;49.142;9.124;2023-04-10T02:58:58;100397.06;;;2.41;72.01
79174;BME280;68599;49.142;9.124;2023-04-10T03:01:25;100395.89;;;2.37;72.36
79174;BME280;68599;49.142;9.124;2023-04-10T03:03:52;100388.31;;;2.33;69.76
79174;BME280;68599;49.142;9.124;2023-04-10T03:06:19;100387.84;;;2.29;69.54
79174;BME280;68599;49.142;9.124;2023-04-10T03:08:47;100383.79;;;2.24;71.07
79174;BME280;68599;49.142;9.124;2023-04-10T03:11:13;100379.61;;;2.21;72.55
79174;BME280;68599;49.142;9.124;2023-04-10T03:13:40;100378.11;;;2.18;73.43
79174;BME280;68599;49.142;9.124;2023-04-10T03:16:06;100377.60;;;2.13;73.22
79174;BME280;68599;49.142;9.124;2023-04-10T03:18:33;100370.52;;;2.08;70.58
79174;BME280;68599;49.142;9.124;2023-04-10T03:21:00;100373.75;;;2.03;71.23
79174;BME280;68599;49.142;9.124;2023-04-10T03:23:27;100370.48;;;2.06;72.57
79174;BME280;68599;49.142;9.124;2023-04-10T03:25:54;100376.40;;;2.08;73.14
79174;BME280;68599;49.142;9.124;2023-04-10T03:28:21;100370.02;;;2.09;71.55
79174;BME280;68599;49.142;9.124;2023-04-10T03:30:50;100368.31;;;2.11;70.36
79174;BME280;68599;49.142;9.124;2023-04-10T03:33:17;100367.99;;;2.13;70.02
79174;BME280;68599;49.142;9.124;2023-04-10T03:35:45;100368.24;;;2.15;70.72
79174;BME280;68599;49.142;9.124;2023-04-10T03:38:12;100363.39;;;2.14;71.35
79174;BME280;68599;49.142;9.124;2023-04-10T03:40:39;100363.98;;;2.15;71.25
79174;BME280;68599;49.142;9.124;2023-04-10T03:43:05;100363.27;;;2.15;73.67
79174;BME280;68599;49.142;9.124;2023-04-10T03:45:32;100359.48;;;2.07;75.06
79174;BME280;68599;49.142;9.124;2023-04-10T03:47:59;100360.23;;;2.02;71.97
79174;BME280;68599;49.142;9.124;2023-04-10T03:50:26;100358.26;;;2.01;72.03
79174;BME280;68599;49.142;9.124;2023-04-10T03:52:53;100353.95;;;1.99;71.32
79174;BME280;68599;49.142;9.124;2023-04-10T03:55:19;100357.88;;;1.94;71.69
79174;BME280;68599;49.142;9.124;2023-04-10T03:57:47;100356.88;;;1.91;71.09
79174;BME280;68599;49.142;9.124;2023-04-10T04:00:15;100354.60;;;1.86;71.30
79174;BME280;68599;49.142;9.124;2023-04-10T04:02:42;100355.02;;;1.82;73.98
79174;BME280;68599;49.142;9.124;2023-04-10T04:05:09;100351.34;;;1.77;75.95
79174;BME280;68599;49.142;9.124;2023-04-10T04:07:35;100346.36;;;1.77;73.99
79174;BME280;68599;49.142;9.124;2023-04-10T04:10:02;100341.67;;;1.81;75.36
79174;BME280;68599;49.142;9.124;2023-04-10T04:12:29;100338.42;;;1.85;74.14
79174;BME280;68599;49.142;9.124;2023-04-10T04:14:55;100335.39;;;1.91;75.18
79174;BME280;68599;49.142;9.124;2023-04-10T04:17:22;100336.63;;;1.97;75.15
79174;BME280;68599;49.142;9.124;2023-04-10T04:19:48;100329.19;;;2.04;76.04
79174;BME280;68599;49.142;9.124;2023-04-10T04:22:15;100324.05;;;2.11;74.47
79174;BME280;68599;49.142;9.124;2023-04-10T04:24:42;100324.75;;;2.17;75.73
79174;BME280;68599;49.142;9.124;2023-04-10T04:27:08;100326.08;;;2.21;75.64
79174;BME280;68599;49.142;9.124;2023-04-10T04:29:35;100327.10;;;2.25;73.69
79174;BME280;68599;49.142;9.124;2023-04-10T04:32:01;100328.11;;;2.29;73.08
79174;BME280;68599;49.142;9.124;2023-04-10T04:34:28;100333.07;;;2.35;73.98
79174;BME280;68599;49.142;9.124;2023-04-10T04:36:54;100332.99;;;2.39;73.16
79174;BME280;68599;49.142;9.124;2023-04-10T04:39:21;100332.52;;;2.42;72.79
79174;BME280;68599;49.142;9.124;2023-04-10T04:41:48;100330.59;;;2.43;70.63
79174;BME280;68599;49.142;9.124;2023-04-10T04:44:17;100333.77;;;2.41;70.01
79174;BME280;68599;49.142;9.124;2023-04-10T04:46:44;100337.81;;;2.40;70.06
79174;BME280;68599;49.142;9.124;2023-04-10T04:49:12;100340.10;;;2.39;70.56
79174;BME280;68599;49.142;9.124;2023-04-10T04:51:38;100342.39;;;2.38;71.31
79174;BME280;68599;49.142;9.124;2023-04-10T04:54:05;100343.24;;;2.37;72.33
79174;BME280;68599;49.142;9.124;2023-04-10T04:56:32;100343.77;;;2.37;71.40
79174;BME280;68599;49.142;9.124;2023-04-10T04:58:58;100347.35;;;2.43;71.26
79174;BME280;68599;49.142;9.124;2023-04-10T05:01:24;100350.41;;;2.52;71.37
79174;BME280;68599;49.142;9.124;2023-04-10T05:03:51;100352.04;;;2.60;70.93
79174;BME280;68599;49.142;9.124;2023-04-10T05:06:18;100357.39;;;2.67;71.42
79174;BME280;68599;49.142;9.124;2023-04-10T05:08:44;100355.02;;;2.79;71.68
79174;BME280;68599;49.142;9.124;2023-04-10T05:11:11;100352.79;;;2.89;71.58
79174;BME280;68599;49.142;9.124;2023-04-10T05:13:38;100352.45;;;2.97;72.33
79174;BME280;68599;49.142;9.124;2023-04-10T05:16:05;100354.05;;;3.04;70.84
79174;BME280;68599;49.142;9.124;2023-04-10T05:18:33;100353.83;;;3.09;72.05
79174;BME280;68599;49.142;9.124;2023-04-10T05:21:00;100353.71;;;3.12;70.62
79174;BME280;68599;49.142;9.124;2023-04-10T05:23:27;100357.13;;;3.21;69.94
79174;BME280;68599;49.142;9.124;2023-04-10T05:25:53;100354.61;;;3.27;69.95
79174;BME280;68599;49.142;9.124;2023-04-10T05:28:19;100351.96;;;3.36;71.63
79174;BME280;68599;49.142;9.124;2023-04-10T05:30:47;100351.11;;;3.45;72.32
79174;BME280;68599;49.142;9.124;2023-04-10T05:33:14;100350.94;;;3.54;71.10
79174;BME280;68599;49.142;9.124;2023-04-10T05:35:40;100350.44;;;3.62;69.95
79174;BME280;68599;49.142;9.124;2023-04-10T05:38:07;100348.16;;;3.73;69.28
79174;BME280;68599;49.142;9.124;2023-04-10T05:40:33;100349.84;;;3.85;68.58
79174;BME280;68599;49.142;9.124;2023-04-10T05:43:00;100350.11;;;3.97;68.95
79174;BME280;68599;49.142;9.124;2023-04-10T05:45:26;100352.95;;;4.14;68.49
79174;BME280;68599;49.142;9.124;2023-04-10T05:47:54;100354.58;;;4.34;68.67
79174;BME280;68599;49.142;9.124;2023-04-10T05:50:20;100358.41;;;4.57;69.72
79174;BME280;68599;49.142;9.124;2023-04-10T05:52:48;100355.21;;;4.78;69.89
79174;BME280;68599;49.142;9.124;2023-04-10T05:55:15;100357.58;;;5.01;69.36
79174;BME280;68599;49.142;9.124;2023-04-10T05:57:41;100357.34;;;5.20;69.08
79174;BME280;68599;49.142;9.124;2023-04-10T06:00:08;100355.88;;;5.28;69.19
79174;BME280;68599;49.142;9.124;2023-04-10T06:02:35;100354.66;;;5.43;68.61
79174;BME280;68599;49.142;9.124;2023-04-10T06:05:02;100349.47;;;5.54;68.03
79174;BME280;68599;49.142;9.124;2023-04-10T06:07:28;100354.47;;;5.65;67.78
79174;BME280;68599;49.142;9.124;2023-04-10T06:09:55;100354.06;;;5.76;67.34
79174;BME280;68599;49.142;9.124;2023-04-10T06:12:22;100354.60;;;5.87;66.80
79174;BME280;68599;49.142;9.124;2023-04-10T06:14:48;100352.73;;;5.94;66.44
79174;BME280;68599;49.142;9.124;2023-04-10T06:17:15;100349.39;;;5.99;66.24
79174;BME280;68599;49.142;9.124;2023-04-10T06:19:41;100347.32;;;6.04;65.83
79174;BME280;68599;49.142;9.124;2023-04-10T06:22:08;100347.04;;;6.10;65.82
79174;BME280;68599;49.142;9.124;2023-04-10T06:24:34;100344.77;;;6.16;65.34
79174;BME280;68599;49.142;9.124;2023-04-10T06:27:02;100346.06;;;6.17;65.50
79174;BME280;68599;49.142;9.124;2023-04-10T06:29:28;100346.93;;;6.32;65.11
79174;BME280;68599;49.142;9.124;2023-04-10T06:31:55;100344.73;;;6.43;65.19
79174;BME280;68599;49.142;9.124;2023-04-10T06:34:22;100343.98;;;6.56;64.89
79174;BME280;68599;49.142;9.124;2023-04-10T06:36:48;100341.02;;;6.65;64.35
79174;BME280;68599;49.142;9.124;2023-04-10T06:39:14;100338.69;;;6.84;64.50
79174;BME280;68599;49.142;9.124;2023-04-10T06:41:41;100338.90;;;7.09;64.44
79174;BME280;68599;49.142;9.124;2023-04-10T06:44:08;100335.80;;;7.23;64.38
79174;BME280;68599;49.142;9.124;2023-04-10T06:46:34;100330.52;;;7.38;64.43
79174;BME280;68599;49.142;9.124;2023-04-10T06:49:01;100328.86;;;7.57;63.70
79174;BME280;68599;49.142;9.124;2023-04-10T06:51:28;100326.57;;;7.66;62.86
79174;BME280;68599;49.142;9.124;2023-04-10T06:53:54;100322.02;;;7.89;62.89
79174;BME280;68599;49.142;9.124;2023-04-10T06:56:21;100321.74;;;8.09;62.18
79174;BME280;68599;49.142;9.124;2023-04-10T06:58:47;100320.20;;;8.27;60.99
79174;BME280;68599;49.142;9.124;2023-04-10T07:01:14;100319.40;;;8.57;61.06
79174;BME280;68599;49.142;9.124;2023-04-10T07:03:43;100317.27;;;8.68;59.86
79174;BME280;68599;49.142;9.124;2023-04-10T07:06:09;100311.90;;;9.00;60.03
79174;BME280;68599;49.142;9.124;2023-04-10T07:08:36;100309.20;;;9.16;59.77
79174;BME280;68599;49.142;9.124;2023-04-10T07:11:03;100307.02;;;9.32;59.77
79174;BME280;68599;49.142;9.124;2023-04-10T07:13:30;100308.42;;;9.48;59.04
79174;BME280;68599;49.142;9.124;2023-04-10T07:15:56;100306.53;;;9.83;58.77
79174;BME280;68599;49.142;9.124;2023-04-10T07:18:23;100306.83;;;10.01;58.00
79174;BME280;68599;49.142;9.124;2023-04-10T07:20:50;100300.66;;;10.10;56.44
79174;BME280;68599;49.142;9.124;2023-04-10T07:23:16;100298.71;;;10.45;57.31
79174;BME280;68599;49.142;9.124;2023-04-10T07:25:43;100298.41;;;10.61;56.62
79174;BME280;68599;49.142;9.124;2023-04-10T07:28:09;100302.30;;;10.75;55.10
79174;BME280;68599;49.142;9.124;2023-04-10T07:30:36;100303.39;;;10.73;54.16
79174;BME280;68599;49.142;9.124;2023-04-10T07:33:03;100302.31;;;10.96;55.23
79174;BME280;68599;49.142;9.124;2023-04-10T07:35:30;100298.23;;;11.08;54.71
79174;BME280;68599;49.142;9.124;2023-04-10T07:37:56;100296.95;;;11.47;54.80
79174;BME280;68599;49.142;9.124;2023-04-10T07:40:23;100291.27;;;11.74;54.02
79174;BME280;68599;49.142;9.124;2023-04-10T07:42:49;100294.95;;;11.86;51.87
79174;BME280;68599;49.142;9.124;2023-04-10T07:45:18;100292.17;;;11.75;50.13
79174;BME280;68599;49.142;9.124;2023-04-10T07:47:45;100295.00;;;11.96;50.48
79174;BME280;68599;49.142;9.124;2023-04-10T07:50:12;100296.15;;;12.20;49.82
79174;BME280;68599;49.142;9.124;2023-04-10T07:52:38;100293.42;;;12.34;48.53
79174;BME280;68599;49.142;9.124;2023-04-10T07:55:05;100291.47;;;12.69;50.13
79174;BME280;68599;49.142;9.124;2023-04-10T07:57:32;100284.41;;;13.03;49.64
79174;BME280;68599;49.142;9.124;2023-04-10T07:59:58;100282.70;;;13.20;49.38
79174;BME280;68599;49.142;9.124;2023-04-10T08:02:25;100282.39;;;13.47;48.71
79174;BME280;68599;49.142;9.124;2023-04-10T08:04:51;100279.40;;;13.52;47.90
79174;BME280;68599;49.142;9.124;2023-04-10T08:07:19;100274.73;;;13.69;46.61
79174;BME280;68599;49.142;9.124;2023-04-10T08:09:46;100271.98;;;13.79;45.25
